createdAt,value
2023-11-07T00:01:31.103Z,5.90
2023-11-07T00:03:48.531Z,6.40
2023-11-07T00:05:57.306Z,6.00
2023-11-07T00:08:06.452Z,5.70
2023-11-07T00:10:15.953Z,6.10
2023-11-07T00:12:24.702Z,4.50
2023-11-07T00:14:33.362Z,3.80
2023-11-07T00:16:42.632Z,5.50
2023-11-07T00:18:51.258Z,6.30
2023-11-07T00:21:01.295Z,4.80
2023-11-07T00:23:10.862Z,4.40
2023-11-07T00:25:19.459Z,8.50
2023-11-07T00:27:29.401Z,7.10
2023-11-07T00:29:38.010Z,4.40
2023-11-07T00:31:46.749Z,4.10
2023-11-07T00:33:55.800Z,4.50
2023-11-07T00:36:04.901Z,6.80
2023-11-07T00:38:13.590Z,3.50
2023-11-07T00:40:22.658Z,5.30
2023-11-07T00:42:31.445Z,6.50
2023-11-07T00:44:39.920Z,5.00
2023-11-07T00:46:48.885Z,8.60
2023-11-07T00:48:57.599Z,7.60
2023-11-07T00:51:06.865Z,7.00
2023-11-07T00:53:15.933Z,6.80
2023-11-07T00:55:24.946Z,9.20
2023-11-07T00:57:33.679Z,5.30
2023-11-07T00:59:42.216Z,8.10
2023-11-07T01:01:50.977Z,5.70
2023-11-07T01:03:59.800Z,7.40
2023-11-07T01:06:10.201Z,8.10
2023-11-07T01:08:19.898Z,6.40
2023-11-07T01:10:28.674Z,4.80
2023-11-07T01:12:37.329Z,6.70
2023-11-07T01:14:46.038Z,7.70
2023-11-07T01:16:55.043Z,3.90
2023-11-07T01:19:04.912Z,4.60
2023-11-07T01:21:13.729Z,6.30
2023-11-07T01:23:22.305Z,5.70
2023-11-07T01:25:30.767Z,9.80
2023-11-07T01:27:39.457Z,6.10
2023-11-07T01:29:48.098Z,5.80
2023-11-07T01:31:57.053Z,5.20
2023-11-07T01:34:05.837Z,8.30
2023-11-07T01:36:14.822Z,7.80
2023-11-07T01:38:23.451Z,6.80
2023-11-07T01:40:32.146Z,5.80
2023-11-07T01:42:46.544Z,7.20
2023-11-07T01:44:55.530Z,5.90
2023-11-07T01:47:04.532Z,3.40
2023-11-07T01:49:13.402Z,7.40
2023-11-07T01:51:22.317Z,7.20
2023-11-07T01:53:33.701Z,8.50
2023-11-07T01:55:44.397Z,5.70
2023-11-07T01:57:53.493Z,5.40
2023-11-07T02:00:02.716Z,6.20
2023-11-07T02:02:24.906Z,6.30
2023-11-07T02:04:33.736Z,6.30
2023-11-07T02:06:44.822Z,5.30
2023-11-07T02:08:53.732Z,6.90
2023-11-07T02:11:02.890Z,8.20
2023-11-07T02:13:12.064Z,6.50
2023-11-07T02:15:28.762Z,6.20
2023-11-07T02:17:37.556Z,5.20
2023-11-07T02:19:46.139Z,6.90
2023-11-07T02:21:56.419Z,6.50
2023-11-07T02:24:07.415Z,10.10
2023-11-07T02:26:17.055Z,4.90
2023-11-07T02:28:26.101Z,4.80
2023-11-07T02:30:34.941Z,7.70
2023-11-07T02:32:44.807Z,6.70
2023-11-07T02:34:53.335Z,7.70
2023-11-07T02:37:02.675Z,5.70
2023-11-07T02:39:14.189Z,6.10
2023-11-07T02:41:23.537Z,6.00
2023-11-07T02:43:32.415Z,5.90
2023-11-07T02:45:41.087Z,7.60
2023-11-07T02:47:49.741Z,5.00
2023-11-07T02:49:58.825Z,8.50
2023-11-07T02:52:08.287Z,5.00
2023-11-07T02:54:16.863Z,7.20
2023-11-07T02:56:30.468Z,6.30
2023-11-07T02:58:39.214Z,4.60
2023-11-07T03:00:47.819Z,5.60
2023-11-07T03:02:56.632Z,6.30
2023-11-07T03:05:06.000Z,7.50
2023-11-07T03:07:14.681Z,5.20
2023-11-07T03:09:23.427Z,6.20
2023-11-07T03:11:32.229Z,7.60
2023-11-07T03:13:40.974Z,6.80
2023-11-07T03:15:50.335Z,5.40
2023-11-07T03:17:59.322Z,8.40
2023-11-07T03:20:10.121Z,6.20
2023-11-07T03:22:18.882Z,9.50
2023-11-07T03:24:27.450Z,6.30
2023-11-07T03:26:36.154Z,5.50
2023-11-07T03:28:44.886Z,8.30
2023-11-07T03:35:15.114Z,3.70
2023-11-07T03:37:24.581Z,7.20
2023-11-07T03:39:34.998Z,6.20
2023-11-07T03:41:46.515Z,6.20
2023-11-07T03:43:55.756Z,6.70
2023-11-07T03:46:04.910Z,6.30
2023-11-07T03:48:13.824Z,6.30
2023-11-07T03:50:24.043Z,8.20
2023-11-07T03:52:32.718Z,5.80
2023-11-07T03:54:41.470Z,6.20
2023-11-07T03:56:51.237Z,6.50
2023-11-07T03:59:00.088Z,6.40
2023-11-07T04:01:09.167Z,5.70
2023-11-07T04:03:18.013Z,6.30
2023-11-07T04:05:27.413Z,5.20
2023-11-07T04:07:36.490Z,6.50
2023-11-07T04:09:45.704Z,5.90
2023-11-07T04:11:54.379Z,6.20
2023-11-07T04:14:05.134Z,7.30
2023-11-07T04:16:14.650Z,6.30
2023-11-07T04:18:24.649Z,5.50
2023-11-07T04:20:34.599Z,5.40
2023-11-07T04:22:43.460Z,8.80
2023-11-07T04:24:52.401Z,7.70
2023-11-07T04:27:01.343Z,7.30
2023-11-07T04:29:10.738Z,6.10
2023-11-07T04:31:19.573Z,7.40
2023-11-07T04:33:28.491Z,4.60
2023-11-07T04:35:37.295Z,4.30
2023-11-07T04:37:46.044Z,6.40
2023-11-07T04:39:54.714Z,6.10
2023-11-07T04:42:04.871Z,5.60
2023-11-07T04:44:13.725Z,5.70
2023-11-07T04:46:22.259Z,5.60
2023-11-07T04:48:33.446Z,5.70
2023-11-07T04:50:44.363Z,6.90
2023-11-07T04:52:54.421Z,7.50
2023-11-07T04:55:03.217Z,4.70
2023-11-07T04:57:12.170Z,7.60
2023-11-07T04:59:20.777Z,7.00
2023-11-07T05:01:29.514Z,4.30
2023-11-07T05:03:41.238Z,5.20
2023-11-07T05:05:52.444Z,5.40
2023-11-07T05:08:01.369Z,6.40
2023-11-07T05:10:13.488Z,6.30
2023-11-07T05:12:22.361Z,7.80
2023-11-07T05:14:30.999Z,7.60
2023-11-07T05:16:40.758Z,4.60
2023-11-07T05:18:49.475Z,3.90
2023-11-07T05:20:58.188Z,7.20
2023-11-07T05:23:06.918Z,5.30
2023-11-07T05:25:17.121Z,8.20
2023-11-07T05:27:25.724Z,4.70
2023-11-07T05:29:34.554Z,7.00
2023-11-07T05:31:43.734Z,4.00
2023-11-07T05:33:52.639Z,3.70
2023-11-07T05:36:01.426Z,5.40
2023-11-07T05:38:11.471Z,8.50
2023-11-07T05:40:20.596Z,4.90
2023-11-07T05:42:29.210Z,5.70
2023-11-07T05:44:37.873Z,5.10
2023-11-07T05:46:46.785Z,3.60
2023-11-07T05:48:55.756Z,4.80
2023-11-07T05:51:04.919Z,3.20
2023-11-07T05:53:13.701Z,3.30
2023-11-07T05:55:23.051Z,3.90
2023-11-07T05:57:32.853Z,7.70
2023-11-07T05:59:41.677Z,5.30
2023-11-07T06:01:50.521Z,6.60
2023-11-07T06:03:59.985Z,8.70
2023-11-07T06:06:09.807Z,4.40
2023-11-07T06:08:18.512Z,4.10
2023-11-07T06:10:27.137Z,6.20
2023-11-07T06:12:36.003Z,7.20
2023-11-07T06:14:44.729Z,4.00
2023-11-07T06:16:54.960Z,5.60
2023-11-07T06:19:05.026Z,3.80
2023-11-07T06:21:15.152Z,7.60
2023-11-07T06:23:25.188Z,5.20
2023-11-07T06:25:35.174Z,4.00
2023-11-07T06:27:45.564Z,5.20
2023-11-07T06:29:54.159Z,6.00
2023-11-07T06:32:03.660Z,5.60
2023-11-07T06:34:13.029Z,6.10
2023-11-07T06:36:22.085Z,4.70
2023-11-07T06:38:31.298Z,4.90
2023-11-07T06:40:40.376Z,5.90
2023-11-07T06:42:49.646Z,5.80
2023-11-07T06:44:58.811Z,7.60
2023-11-07T06:47:07.724Z,6.60
2023-11-07T06:49:16.591Z,4.10
2023-11-07T06:51:25.784Z,6.40
2023-11-07T06:53:34.555Z,7.20
2023-11-07T06:55:43.570Z,11.30
2023-11-07T06:57:53.060Z,12.10
2023-11-07T07:00:01.661Z,20.60
2023-11-07T07:02:10.583Z,22.50
2023-11-07T07:04:19.269Z,17.40
2023-11-07T07:06:28.870Z,25.80
2023-11-07T07:08:37.650Z,12.90
2023-11-07T07:10:46.440Z,8.60
2023-11-07T07:12:56.182Z,9.10
2023-11-07T07:15:07.482Z,8.20
2023-11-07T07:17:17.666Z,5.40
2023-11-07T07:19:26.583Z,5.10
2023-11-07T07:21:36.751Z,5.60
2023-11-07T07:23:48.603Z,7.50
2023-11-07T07:25:58.260Z,3.30
2023-11-07T07:28:08.462Z,4.70
2023-11-07T07:30:23.184Z,7.00
2023-11-07T07:32:35.405Z,6.00
2023-11-07T07:34:44.319Z,4.90
2023-11-07T07:36:55.533Z,5.30
2023-11-07T07:39:06.959Z,7.00
2023-11-07T07:41:15.851Z,7.90
2023-11-07T07:43:24.427Z,3.90
2023-11-07T07:45:35.426Z,5.30
2023-11-07T07:47:47.397Z,6.90
2023-11-07T07:49:57.032Z,5.60
2023-11-07T07:52:10.526Z,5.50
2023-11-07T07:54:36.333Z,7.90
2023-11-07T07:56:53.110Z,5.50
2023-11-07T07:59:01.838Z,6.70
2023-11-07T08:01:11.268Z,3.60
2023-11-07T08:03:20.773Z,5.40
2023-11-07T08:05:34.911Z,5.70
2023-11-07T08:07:43.534Z,6.00
2023-11-07T08:09:52.314Z,6.10
2023-11-07T08:12:01.865Z,6.40
2023-11-07T08:14:10.759Z,4.60
2023-11-07T08:16:20.927Z,5.70
2023-11-07T08:18:29.674Z,5.70
2023-11-07T08:20:39.792Z,3.90
2023-11-07T08:22:49.819Z,3.80
2023-11-07T08:25:00.258Z,4.20
2023-11-07T08:27:08.919Z,5.80
2023-11-07T08:29:17.642Z,3.10
2023-11-07T08:31:28.554Z,4.20
2023-11-07T08:33:39.301Z,4.00
2023-11-07T08:35:48.416Z,4.90
2023-11-07T08:37:57.125Z,3.10
2023-11-07T08:40:11.536Z,3.80
2023-11-07T08:42:20.294Z,5.00
2023-11-07T08:44:29.098Z,4.60
2023-11-07T08:46:38.053Z,3.80
2023-11-07T08:48:47.093Z,4.00
2023-11-07T08:50:56.062Z,6.30
2023-11-07T08:53:06.995Z,3.10
2023-11-07T08:55:17.772Z,4.90
2023-11-07T08:57:27.843Z,4.60
2023-11-07T08:59:41.944Z,4.10
2023-11-07T09:01:52.855Z,2.60
2023-11-07T09:04:01.787Z,3.70
2023-11-07T09:06:10.586Z,2.80
2023-11-07T09:08:19.726Z,3.80
2023-11-07T09:10:28.598Z,4.50
2023-11-07T09:12:37.345Z,3.80
2023-11-07T09:14:46.386Z,4.30
2023-11-07T09:16:55.256Z,5.60
2023-11-07T09:19:04.102Z,3.60
2023-11-07T09:21:14.387Z,3.20
2023-11-07T09:23:23.673Z,5.90
2023-11-07T09:25:33.604Z,4.80
2023-11-07T09:27:43.049Z,3.40
2023-11-07T09:29:57.345Z,3.70
2023-11-07T09:32:07.218Z,3.10
2023-11-07T09:34:16.615Z,3.80
2023-11-07T09:36:25.483Z,3.20
2023-11-07T09:38:43.015Z,7.10
2023-11-07T09:40:58.545Z,3.60
2023-11-07T09:43:07.832Z,4.30
2023-11-07T09:45:19.823Z,4.10
2023-11-07T09:47:30.335Z,3.90
2023-11-07T09:49:39.762Z,4.50
2023-11-07T09:51:52.850Z,5.70
2023-11-07T09:54:02.171Z,2.90
2023-11-07T09:56:14.716Z,2.70
2023-11-07T09:58:31.146Z,4.60
2023-11-07T10:00:40.387Z,5.10
2023-11-07T10:02:50.415Z,3.90
2023-11-07T10:05:00.015Z,4.30
2023-11-07T10:07:09.304Z,4.90
2023-11-07T10:09:18.591Z,5.50
2023-11-07T10:11:27.480Z,4.20
2023-11-07T10:13:36.320Z,4.40
2023-11-07T10:15:46.173Z,4.10
2023-11-07T10:18:09.117Z,4.00
2023-11-07T10:20:17.975Z,4.80
2023-11-07T10:22:27.107Z,3.60
2023-11-07T10:24:46.514Z,3.20
2023-11-07T10:27:00.458Z,3.80
2023-11-07T10:29:18.201Z,5.00
2023-11-07T10:31:29.481Z,5.10
2023-11-07T10:33:38.250Z,4.30
2023-11-07T10:35:57.446Z,3.90
2023-11-07T10:38:16.029Z,4.40
2023-11-07T10:40:24.896Z,3.60
2023-11-07T10:42:36.041Z,9.00
2023-11-07T10:44:45.757Z,5.10
2023-11-07T10:46:56.010Z,6.60
2023-11-07T10:49:06.571Z,6.70
2023-11-07T10:51:15.797Z,6.30
2023-11-07T10:53:24.428Z,4.40
2023-11-07T10:55:32.967Z,4.60
2023-11-07T10:57:51.120Z,4.40
2023-11-07T11:00:06.971Z,5.20
2023-11-07T11:02:17.673Z,7.50
2023-11-07T11:04:28.034Z,5.90
2023-11-07T11:06:37.988Z,5.10
2023-11-07T11:08:50.307Z,4.80
2023-11-07T11:11:02.839Z,4.00
2023-11-07T11:13:16.096Z,3.60
2023-11-07T11:15:25.944Z,3.50
2023-11-07T11:17:39.932Z,4.10
2023-11-07T11:19:55.591Z,3.10
2023-11-07T11:22:17.060Z,4.70
2023-11-07T11:24:42.160Z,5.40
2023-11-07T11:26:56.161Z,4.30
2023-11-07T11:29:28.081Z,4.80
2023-11-07T11:31:41.088Z,4.60
2023-11-07T11:33:52.480Z,4.60
2023-11-07T11:38:13.780Z,4.50
2023-11-07T11:43:09.761Z,5.60
2023-11-07T11:45:41.064Z,3.80
2023-11-07T11:47:55.786Z,8.10
2023-11-07T11:50:21.107Z,3.60
2023-11-07T11:52:36.332Z,3.40
2023-11-07T11:54:57.378Z,3.00
2023-11-07T11:57:11.669Z,5.50
2023-11-07T11:59:21.515Z,4.10
2023-11-07T12:01:32.619Z,5.20
2023-11-07T12:03:49.952Z,3.80
2023-11-07T12:06:07.367Z,3.60
2023-11-07T12:08:37.080Z,3.00
2023-11-07T12:10:58.720Z,3.50
2023-11-07T12:13:07.382Z,4.10
2023-11-07T12:15:17.541Z,3.60
2023-11-07T12:17:28.838Z,4.30
2023-11-07T12:19:37.605Z,4.30
2023-11-07T12:21:47.850Z,4.40
2023-11-07T12:23:59.388Z,3.50
2023-11-07T12:26:10.162Z,4.60
2023-11-07T12:28:18.729Z,5.10
2023-11-07T12:30:27.746Z,4.30
2023-11-07T12:32:36.444Z,5.80
2023-11-07T12:34:47.959Z,4.80
2023-11-07T12:39:05.293Z,4.90
2023-11-07T12:41:15.589Z,4.40
2023-11-07T12:43:24.730Z,3.00
2023-11-07T12:45:37.770Z,5.80
2023-11-07T12:47:55.753Z,3.90
2023-11-07T12:52:13.242Z,3.70
2023-11-07T12:54:28.396Z,5.60
2023-11-07T12:56:45.120Z,4.50
2023-11-07T12:58:53.953Z,5.60
2023-11-07T13:01:05.986Z,4.90
2023-11-07T13:03:15.020Z,4.20
2023-11-07T13:05:23.960Z,3.30
2023-11-07T13:07:35.586Z,4.50
2023-11-07T13:09:45.224Z,2.80
2023-11-07T13:11:53.920Z,3.00
2023-11-07T13:14:03.568Z,4.20
2023-11-07T13:16:12.431Z,3.40
2023-11-07T13:18:21.109Z,4.60
2023-11-07T13:20:34.440Z,4.30
2023-11-07T13:22:43.190Z,4.90
2023-11-07T13:24:52.008Z,5.60
2023-11-07T13:27:00.903Z,5.00
2023-11-07T13:29:09.628Z,3.00
2023-11-07T13:31:19.232Z,4.40
2023-11-07T13:33:28.253Z,3.80
2023-11-07T13:35:38.775Z,2.70
2023-11-07T13:37:47.482Z,5.20
2023-11-07T13:39:56.480Z,2.40
2023-11-07T13:42:06.134Z,5.00
2023-11-07T13:44:14.963Z,3.40
2023-11-07T13:46:23.727Z,5.60
2023-11-07T13:48:34.105Z,4.50
2023-11-07T13:50:45.676Z,3.20
2023-11-07T13:52:57.896Z,2.80
2023-11-07T13:55:07.837Z,4.70
2023-11-07T13:57:17.141Z,5.90
2023-11-07T13:59:27.370Z,3.20
2023-11-07T14:01:39.132Z,3.50
2023-11-07T14:03:48.099Z,3.50
2023-11-07T14:05:57.024Z,5.00
2023-11-07T14:08:06.386Z,4.50
2023-11-07T14:10:18.963Z,5.10
2023-11-07T14:12:27.631Z,4.70
2023-11-07T14:14:36.489Z,4.60
2023-11-07T14:16:46.441Z,3.50
2023-11-07T14:18:55.425Z,3.70
2023-11-07T14:21:04.760Z,4.00
2023-11-07T14:23:13.695Z,5.50
2023-11-07T14:25:29.124Z,3.80
2023-11-07T14:27:38.473Z,5.00
2023-11-07T14:30:01.967Z,5.20
2023-11-07T14:32:16.234Z,3.70
2023-11-07T14:34:24.958Z,5.00
2023-11-07T14:36:33.971Z,4.70
2023-11-07T14:38:43.782Z,3.10
2023-11-07T14:40:53.149Z,5.00
2023-11-07T14:43:05.435Z,4.90
2023-11-07T14:45:14.441Z,4.20
2023-11-07T14:47:23.361Z,6.10
2023-11-07T14:49:33.000Z,6.50
2023-11-07T14:51:41.704Z,5.40
2023-11-07T14:53:51.994Z,6.30
2023-11-07T14:56:00.917Z,5.70
2023-11-07T14:58:10.778Z,5.10
2023-11-07T15:00:27.479Z,3.70
2023-11-07T15:02:37.881Z,3.40
2023-11-07T15:04:46.826Z,4.60
2023-11-07T15:06:55.706Z,4.60
2023-11-07T15:09:08.214Z,7.80
2023-11-07T15:11:17.102Z,7.00
2023-11-07T15:13:26.459Z,6.40
2023-11-07T15:15:35.507Z,6.50
2023-11-07T15:17:45.865Z,4.40
2023-11-07T15:19:54.607Z,4.20
2023-11-07T15:22:04.423Z,4.80
2023-11-07T15:24:15.193Z,5.00
2023-11-07T15:26:23.980Z,3.40
2023-11-07T15:28:33.641Z,5.00
2023-11-07T15:30:42.385Z,5.80
2023-11-07T15:32:52.251Z,4.00
2023-11-07T15:35:01.362Z,5.40
2023-11-07T15:37:10.824Z,4.50
2023-11-07T15:39:22.914Z,5.20
2023-11-07T15:41:34.236Z,6.00
2023-11-07T15:43:43.215Z,7.80
2023-11-07T15:45:51.984Z,7.90
2023-11-07T15:48:01.080Z,8.80
2023-11-07T15:50:16.002Z,6.30
2023-11-07T15:52:25.055Z,9.00
2023-11-07T15:54:34.024Z,7.70
2023-11-07T15:56:47.532Z,7.80
2023-11-07T15:58:56.111Z,10.70
2023-11-07T16:01:05.292Z,8.10
2023-11-07T16:03:16.498Z,6.60
2023-11-07T16:05:30.301Z,5.70
2023-11-07T16:07:39.413Z,11.30
2023-11-07T16:09:48.019Z,5.90
2023-11-07T16:11:56.824Z,6.70
2023-11-07T16:14:06.487Z,7.50
2023-11-07T16:16:15.088Z,6.80
2023-11-07T16:18:24.158Z,6.20
2023-11-07T16:20:33.291Z,6.40
2023-11-07T16:22:41.892Z,5.40
2023-11-07T16:24:50.474Z,6.80
2023-11-07T16:27:09.647Z,7.00
2023-11-07T16:29:18.649Z,6.50
2023-11-07T16:31:30.705Z,4.20
2023-11-07T16:33:39.710Z,5.30
2023-11-07T16:35:48.696Z,5.40
2023-11-07T16:37:57.240Z,6.60
2023-11-07T16:40:09.565Z,6.90
2023-11-07T16:42:18.589Z,6.00
2023-11-07T16:44:30.333Z,8.30
2023-11-07T16:48:46.908Z,5.80
2023-11-07T16:50:55.765Z,7.00
2023-11-07T16:53:06.143Z,7.90
2023-11-07T16:55:15.826Z,6.40
2023-11-07T16:57:24.750Z,6.40
2023-11-07T16:59:33.700Z,5.00
2023-11-07T17:01:42.953Z,8.00
2023-11-07T17:03:53.318Z,6.00
2023-11-07T17:06:02.188Z,5.30
2023-11-07T17:08:13.868Z,7.90
2023-11-07T17:10:24.118Z,5.30
2023-11-07T17:12:33.266Z,5.10
2023-11-07T17:14:41.920Z,9.50
2023-11-07T17:16:50.628Z,6.10
2023-11-07T17:18:59.681Z,6.00
2023-11-07T17:21:09.038Z,5.30
2023-11-07T17:23:17.854Z,6.50
2023-11-07T17:25:26.846Z,6.40
2023-11-07T17:27:36.120Z,5.90
2023-11-07T17:29:44.876Z,7.30
2023-11-07T17:31:55.400Z,7.70
2023-11-07T17:34:04.646Z,8.60
2023-11-07T17:36:13.631Z,5.80
2023-11-07T17:38:22.486Z,5.30
2023-11-07T17:40:32.079Z,10.80
2023-11-07T17:42:40.768Z,5.80
2023-11-07T17:44:50.499Z,5.80
2023-11-07T17:46:59.255Z,7.20
2023-11-07T17:49:08.206Z,7.10
2023-11-07T17:51:23.618Z,7.60
2023-11-07T17:53:32.491Z,5.70
2023-11-07T17:55:41.153Z,7.60
2023-11-07T17:57:50.326Z,5.80
2023-11-07T17:59:59.252Z,6.40
2023-11-07T18:02:08.775Z,6.50
2023-11-07T18:04:17.914Z,5.60
2023-11-07T18:06:28.974Z,5.70
2023-11-07T18:08:37.961Z,5.40
2023-11-07T18:10:47.412Z,7.80
2023-11-07T18:12:56.350Z,5.00
2023-11-07T18:15:05.551Z,7.00
2023-11-07T18:17:14.338Z,6.20
2023-11-07T18:19:23.763Z,7.60
2023-11-07T18:21:32.601Z,9.80
2023-11-07T18:23:41.647Z,5.80
2023-11-07T18:25:50.601Z,7.70
2023-11-07T18:27:59.256Z,8.80
2023-11-07T18:30:10.151Z,9.00
2023-11-07T18:32:20.246Z,10.30
2023-11-07T18:34:29.014Z,7.80
2023-11-07T18:36:38.300Z,7.00
2023-11-07T18:38:46.892Z,7.60
2023-11-07T18:40:55.432Z,11.30
2023-11-07T18:43:04.266Z,11.10
2023-11-07T18:45:14.562Z,8.40
2023-11-07T18:47:23.475Z,12.20
2023-11-07T18:49:33.217Z,6.90
2023-11-07T18:51:42.844Z,6.10
2023-11-07T18:53:53.786Z,8.50
2023-11-07T18:56:03.121Z,9.00
2023-11-07T18:58:14.322Z,8.50
2023-11-07T19:00:23.181Z,12.00
2023-11-07T19:02:32.425Z,9.80
2023-11-07T19:04:41.794Z,9.70
2023-11-07T19:06:50.678Z,10.20
2023-11-07T19:09:00.066Z,10.00
2023-11-07T19:11:09.283Z,8.60
2023-11-07T19:13:18.564Z,7.90
2023-11-07T19:15:27.722Z,8.40
2023-11-07T19:17:39.159Z,12.80
2023-11-07T19:19:47.893Z,8.20
2023-11-07T19:21:57.383Z,9.40
2023-11-07T19:24:07.490Z,12.40
2023-11-07T19:26:18.129Z,10.10
2023-11-07T19:28:29.204Z,8.30
2023-11-07T19:30:38.352Z,7.60
2023-11-07T19:32:48.283Z,6.60
2023-11-07T19:34:59.020Z,9.00
2023-11-07T19:37:09.187Z,8.90
2023-11-07T19:39:19.063Z,9.90
2023-11-07T19:41:28.786Z,11.90
2023-11-07T19:45:49.528Z,7.60
2023-11-07T19:47:58.305Z,9.20
2023-11-07T19:50:14.200Z,13.90
2023-11-07T19:52:25.136Z,26.90
2023-11-07T19:54:36.299Z,28.10
2023-11-07T19:56:45.760Z,25.50
2023-11-07T19:59:00.501Z,19.60
2023-11-07T20:01:10.075Z,19.40
2023-11-07T20:03:20.127Z,18.70
2023-11-07T20:05:29.079Z,14.70
2023-11-07T20:07:46.775Z,19.80
2023-11-07T20:10:03.127Z,21.30
2023-11-07T20:12:12.543Z,14.00
2023-11-07T20:14:21.224Z,59.40
2023-11-07T20:16:30.746Z,16.60
2023-11-07T20:18:39.493Z,13.80
2023-11-07T20:20:48.241Z,13.70
2023-11-07T20:22:59.631Z,11.90
2023-11-07T20:25:11.337Z,15.30
2023-11-07T20:27:20.480Z,17.60
2023-11-07T20:29:33.326Z,13.20
2023-11-07T20:31:41.945Z,13.90
2023-11-07T20:33:50.940Z,16.20
2023-11-07T20:36:01.900Z,13.70
2023-11-07T20:38:12.522Z,14.90
2023-11-07T20:40:21.586Z,14.90
2023-11-07T20:42:30.612Z,15.40
2023-11-07T20:44:44.508Z,13.40
2023-11-07T20:46:57.030Z,15.80
2023-11-07T20:51:15.438Z,16.30
2023-11-07T20:53:24.297Z,13.80
2023-11-07T20:55:35.115Z,15.90
2023-11-07T20:57:54.955Z,13.70
2023-11-07T21:00:17.423Z,12.70
2023-11-07T21:02:26.563Z,15.80
2023-11-07T21:06:47.452Z,15.70
2023-11-07T21:08:56.971Z,15.00
2023-11-07T21:11:05.850Z,12.80
2023-11-07T21:13:14.702Z,14.50
2023-11-07T21:15:23.595Z,13.90
2023-11-07T21:17:32.789Z,13.10
2023-11-07T21:19:42.310Z,10.20
2023-11-07T21:21:51.837Z,10.60
2023-11-07T21:24:00.548Z,9.30
2023-11-07T21:26:09.327Z,9.20
2023-11-07T21:28:17.866Z,11.70
2023-11-07T21:30:26.919Z,10.20
2023-11-07T21:32:35.717Z,8.80
2023-11-07T21:34:45.701Z,9.00
2023-11-07T21:36:54.610Z,9.20
2023-11-07T21:39:03.479Z,10.10
2023-11-07T21:41:12.094Z,10.30
2023-11-07T21:43:21.982Z,7.90
2023-11-07T21:45:32.070Z,9.00
2023-11-07T21:47:43.223Z,7.90
2023-11-07T21:49:51.968Z,10.00
2023-11-07T21:52:00.707Z,8.00
2023-11-07T21:54:10.171Z,9.30
2023-11-07T21:56:26.447Z,7.70
2023-11-07T21:58:35.342Z,7.80
2023-11-07T22:00:43.931Z,7.40
2023-11-07T22:02:52.814Z,9.50
2023-11-07T22:05:01.731Z,7.70
2023-11-07T22:07:10.509Z,6.90
2023-11-07T22:09:19.295Z,8.40
2023-11-07T22:11:28.139Z,8.20
2023-11-07T22:13:37.356Z,10.90
2023-11-07T22:15:46.147Z,8.50
2023-11-07T22:17:55.055Z,8.70
2023-11-07T22:20:04.787Z,8.30
2023-11-07T22:22:13.732Z,13.00
2023-11-07T22:24:22.548Z,7.50
2023-11-07T22:26:31.192Z,7.90
2023-11-07T22:28:40.276Z,7.30
2023-11-07T22:30:48.943Z,7.00
2023-11-07T22:32:57.750Z,6.50
2023-11-07T22:35:07.060Z,7.40
2023-11-07T22:37:15.786Z,6.60
2023-11-07T22:39:24.849Z,6.60
2023-11-07T22:41:33.386Z,7.40
2023-11-07T22:43:42.112Z,8.10
2023-11-07T22:45:50.902Z,10.90
2023-11-07T22:48:00.443Z,8.70
2023-11-07T22:50:11.456Z,7.90
2023-11-07T22:52:20.507Z,9.10
2023-11-07T22:54:29.313Z,9.00
2023-11-07T22:56:38.038Z,9.00
2023-11-07T22:58:47.128Z,7.20
2023-11-07T23:00:57.239Z,8.10
2023-11-07T23:03:08.604Z,8.60
2023-11-07T23:05:17.628Z,11.90
2023-11-07T23:07:26.627Z,6.60
2023-11-07T23:09:35.489Z,9.10
2023-11-07T23:11:46.342Z,11.40
2023-11-07T23:13:55.070Z,8.70
2023-11-07T23:16:03.926Z,6.70
2023-11-07T23:18:12.817Z,8.40
2023-11-07T23:20:22.541Z,8.80
2023-11-07T23:22:31.983Z,7.60
2023-11-07T23:24:43.087Z,7.30
2023-11-07T23:26:53.139Z,10.00
2023-11-07T23:29:01.829Z,10.80
2023-11-07T23:31:11.104Z,7.30
2023-11-07T23:33:19.902Z,7.40
2023-11-07T23:35:28.579Z,8.30
2023-11-07T23:37:37.617Z,6.90
2023-11-07T23:39:46.685Z,9.30
2023-11-07T23:41:55.303Z,7.00
2023-11-07T23:44:04.013Z,7.10
2023-11-07T23:46:12.993Z,7.20
2023-11-07T23:48:21.680Z,7.30
2023-11-07T23:50:30.324Z,10.30
2023-11-07T23:52:38.945Z,7.10
2023-11-07T23:54:47.980Z,8.30
2023-11-07T23:56:57.598Z,7.00
2023-11-07T23:59:06.935Z,7.60
